sensor_id;sensor_type;location;lat;lon;timestamp;pressure;altitude;pressure_sealevel;temperature;humidity
74334;BME280;62753;40.394;-80.022;2022-12-18T00:00:07;96696.00;;;7.16;34.08
74334;BME280;62753;40.394;-80.022;2022-12-18T00:02:31;96690.78;;;6.96;33.78
74334;BME280;62753;40.394;-80.022;2022-12-18T00:04:58;96689.44;;;7.06;33.97
74334;BME280;62753;40.394;-80.022;2022-12-18T00:07:23;96695.12;;;5.73;34.84
74334;BME280;62753;40.394;-80.022;2022-12-18T00:09:48;96698.73;;;6.99;33.59
74334;BME280;62753;40.394;-80.022;2022-12-18T00:12:14;96703.15;;;7.48;33.03
74334;BME280;62753;40.394;-80.022;2022-12-18T00:14:39;96707.33;;;7.33;33.23
74334;BME280;62753;40.394;-80.022;2022-12-18T00:17:05;96705.46;;;7.18;32.76
74334;BME280;62753;40.394;-80.022;2022-12-18T00:19:30;96710.89;;;7.13;33.64
74334;BME280;62753;40.394;-80.022;2022-12-18T00:21:56;96714.36;;;7.26;33.58
74334;BME280;62753;40.394;-80.022;2022-12-18T00:24:22;96712.61;;;7.53;32.83
74334;BME280;62753;40.394;-80.022;2022-12-18T00:26:47;96714.03;;;7.60;33.50
74334;BME280;62753;40.394;-80.022;2022-12-18T00:29:14;96716.20;;;6.83;33.57
74334;BME280;62753;40.394;-80.022;2022-12-18T00:31:39;96715.14;;;7.30;32.62
74334;BME280;62753;40.394;-80.022;2022-12-18T00:34:05;96713.11;;;7.85;32.58
74334;BME280;62753;40.394;-80.022;2022-12-18T00:36:33;96710.51;;;7.60;33.13
74334;BME280;62753;40.394;-80.022;2022-12-18T00:38:57;96708.06;;;7.39;33.27
74334;BME280;62753;40.394;-80.022;2022-12-18T00:41:22;96711.16;;;7.59;33.66
74334;BME280;62753;40.394;-80.022;2022-12-18T00:43:47;96715.86;;;7.12;34.24
74334;BME280;62753;40.394;-80.022;2022-12-18T00:46:12;96723.04;;;7.21;34.58
74334;BME280;62753;40.394;-80.022;2022-12-18T00:48:38;96733.41;;;7.03;34.61
74334;BME280;62753;40.394;-80.022;2022-12-18T00:51:04;96734.42;;;6.81;34.92
74334;BME280;62753;40.394;-80.022;2022-12-18T00:53:29;96734.50;;;7.03;34.95
74334;BME280;62753;40.394;-80.022;2022-12-18T00:55:55;96731.12;;;7.01;35.34
74334;BME280;62753;40.394;-80.022;2022-12-18T00:58:21;96729.69;;;6.75;35.58
74334;BME280;62753;40.394;-80.022;2022-12-18T01:00:46;96725.23;;;6.98;35.43
74334;BME280;62753;40.394;-80.022;2022-12-18T01:03:13;96716.86;;;7.09;34.91
74334;BME280;62753;40.394;-80.022;2022-12-18T01:05:40;96718.95;;;6.42;34.97
74334;BME280;62753;40.394;-80.022;2022-12-18T01:08:03;96727.13;;;7.01;35.12
74334;BME280;62753;40.394;-80.022;2022-12-18T01:10:28;96734.06;;;7.12;34.94
74334;BME280;62753;40.394;-80.022;2022-12-18T01:12:54;96745.22;;;6.35;36.49
74334;BME280;62753;40.394;-80.022;2022-12-18T01:15:20;96749.42;;;6.28;37.18
74334;BME280;62753;40.394;-80.022;2022-12-18T01:17:45;96746.83;;;6.74;36.40
74334;BME280;62753;40.394;-80.022;2022-12-18T01:20:11;96746.84;;;6.82;36.14
74334;BME280;62753;40.394;-80.022;2022-12-18T01:22:35;96741.64;;;7.16;35.74
74334;BME280;62753;40.394;-80.022;2022-12-18T01:25:01;96742.01;;;6.75;35.73
74334;BME280;62753;40.394;-80.022;2022-12-18T01:27:26;96733.30;;;7.03;35.74
74334;BME280;62753;40.394;-80.022;2022-12-18T01:29:52;96732.92;;;6.64;36.47
74334;BME280;62753;40.394;-80.022;2022-12-18T01:32:17;96739.98;;;6.13;37.15
74334;BME280;62753;40.394;-80.022;2022-12-18T01:34:44;96742.15;;;5.78;37.40
74334;BME280;62753;40.394;-80.022;2022-12-18T01:37:09;96744.76;;;5.42;38.51
74334;BME280;62753;40.394;-80.022;2022-12-18T01:39:34;96746.64;;;4.98;39.48
74334;BME280;62753;40.394;-80.022;2022-12-18T01:42:08;96749.67;;;5.83;38.68
74334;BME280;62753;40.394;-80.022;2022-12-18T01:46:51;96754.99;;;4.55;41.37
74334;BME280;62753;40.394;-80.022;2022-12-18T01:49:17;96754.34;;;4.18;42.29
74334;BME280;62753;40.394;-80.022;2022-12-18T01:51:42;96758.36;;;4.60;41.30
74334;BME280;62753;40.394;-80.022;2022-12-18T01:54:08;96756.14;;;5.47;39.40
74334;BME280;62753;40.394;-80.022;2022-12-18T01:56:33;96757.53;;;3.62;41.86
74334;BME280;62753;40.394;-80.022;2022-12-18T01:59:03;96765.54;;;4.16;41.35
74334;BME280;62753;40.394;-80.022;2022-12-18T02:01:25;96773.21;;;4.04;41.88
74334;BME280;62753;40.394;-80.022;2022-12-18T02:03:50;96767.13;;;4.37;42.03
74334;BME280;62753;40.394;-80.022;2022-12-18T02:06:18;96767.32;;;5.06;40.64
74334;BME280;62753;40.394;-80.022;2022-12-18T02:08:47;96769.60;;;4.49;41.51
74334;BME280;62753;40.394;-80.022;2022-12-18T02:11:10;96765.58;;;3.47;43.07
74334;BME280;62753;40.394;-80.022;2022-12-18T02:13:40;96765.98;;;3.46;42.97
74334;BME280;62753;40.394;-80.022;2022-12-18T02:16:03;96762.88;;;3.59;42.25
74334;BME280;62753;40.394;-80.022;2022-12-18T02:18:26;96762.39;;;4.05;41.60
74334;BME280;62753;40.394;-80.022;2022-12-18T02:20:52;96765.49;;;4.30;41.09
74334;BME280;62753;40.394;-80.022;2022-12-18T02:23:23;96767.54;;;4.44;40.81
74334;BME280;62753;40.394;-80.022;2022-12-18T02:25:56;96769.99;;;4.35;41.06
74334;BME280;62753;40.394;-80.022;2022-12-18T02:28:08;96767.06;;;4.92;39.82
74334;BME280;62753;40.394;-80.022;2022-12-18T02:30:32;96765.44;;;5.82;38.39
74334;BME280;62753;40.394;-80.022;2022-12-18T02:32:56;96767.83;;;4.81;39.09
74334;BME280;62753;40.394;-80.022;2022-12-18T02:35:24;96768.83;;;4.47;39.96
74334;BME280;62753;40.394;-80.022;2022-12-18T02:37:47;96771.21;;;4.09;41.29
74334;BME280;62753;40.394;-80.022;2022-12-18T02:40:13;96773.23;;;4.72;40.38
74334;BME280;62753;40.394;-80.022;2022-12-18T02:42:37;96774.45;;;4.41;40.43
74334;BME280;62753;40.394;-80.022;2022-12-18T02:45:03;96772.22;;;5.39;39.21
74334;BME280;62753;40.394;-80.022;2022-12-18T02:47:31;96773.20;;;4.23;40.46
74334;BME280;62753;40.394;-80.022;2022-12-18T02:50:00;96774.36;;;3.71;42.08
74334;BME280;62753;40.394;-80.022;2022-12-18T02:52:27;96771.87;;;3.92;41.45
74334;BME280;62753;40.394;-80.022;2022-12-18T02:54:54;96768.86;;;3.74;41.46
74334;BME280;62753;40.394;-80.022;2022-12-18T02:57:17;96774.45;;;4.62;39.84
74334;BME280;62753;40.394;-80.022;2022-12-18T02:59:40;96772.20;;;3.76;41.45
74334;BME280;62753;40.394;-80.022;2022-12-18T03:02:07;96767.18;;;4.24;40.93
74334;BME280;62753;40.394;-80.022;2022-12-18T03:04:29;96773.16;;;4.83;39.47
74334;BME280;62753;40.394;-80.022;2022-12-18T03:06:56;96776.47;;;4.36;40.26
74334;BME280;62753;40.394;-80.022;2022-12-18T03:09:19;96776.69;;;4.52;40.20
74334;BME280;62753;40.394;-80.022;2022-12-18T03:11:46;96772.40;;;2.77;42.15
74334;BME280;62753;40.394;-80.022;2022-12-18T03:14:09;96770.81;;;3.77;40.36
74334;BME280;62753;40.394;-80.022;2022-12-18T03:16:35;96768.91;;;3.32;41.96
74334;BME280;62753;40.394;-80.022;2022-12-18T03:19:03;96768.94;;;2.83;43.75
74334;BME280;62753;40.394;-80.022;2022-12-18T03:21:29;96768.90;;;2.86;42.75
74334;BME280;62753;40.394;-80.022;2022-12-18T03:23:51;96768.05;;;2.94;43.55
74334;BME280;62753;40.394;-80.022;2022-12-18T03:26:18;96766.52;;;3.61;41.80
74334;BME280;62753;40.394;-80.022;2022-12-18T03:28:45;96765.50;;;3.09;41.33
74334;BME280;62753;40.394;-80.022;2022-12-18T03:31:09;96768.68;;;4.23;39.74
74334;BME280;62753;40.394;-80.022;2022-12-18T03:33:36;96772.03;;;4.23;40.02
74334;BME280;62753;40.394;-80.022;2022-12-18T03:35:58;96774.83;;;4.11;39.65
74334;BME280;62753;40.394;-80.022;2022-12-18T03:38:23;96775.00;;;4.22;38.90
74334;BME280;62753;40.394;-80.022;2022-12-18T03:40:56;96775.71;;;3.94;40.46
74334;BME280;62753;40.394;-80.022;2022-12-18T03:43:20;96773.05;;;3.08;41.45
74334;BME280;62753;40.394;-80.022;2022-12-18T03:45:45;96772.10;;;4.23;40.18
74334;BME280;62753;40.394;-80.022;2022-12-18T03:48:08;96770.08;;;3.83;39.74
74334;BME280;62753;40.394;-80.022;2022-12-18T03:50:39;96774.79;;;3.01;41.88
74334;BME280;62753;40.394;-80.022;2022-12-18T03:52:59;96774.08;;;3.30;40.82
74334;BME280;62753;40.394;-80.022;2022-12-18T03:55:22;96774.05;;;4.00;40.07
74334;BME280;62753;40.394;-80.022;2022-12-18T03:57:48;96767.14;;;3.68;40.25
74334;BME280;62753;40.394;-80.022;2022-12-18T04:00:14;96772.67;;;4.10;39.65
74334;BME280;62753;40.394;-80.022;2022-12-18T04:02:40;96769.66;;;4.87;38.79
74334;BME280;62753;40.394;-80.022;2022-12-18T04:05:05;96771.85;;;5.00;38.10
74334;BME280;62753;40.394;-80.022;2022-12-18T04:07:29;96768.69;;;5.45;37.34
74334;BME280;62753;40.394;-80.022;2022-12-18T04:09:56;96768.15;;;5.88;36.39
74334;BME280;62753;40.394;-80.022;2022-12-18T04:12:20;96767.62;;;5.27;37.19
74334;BME280;62753;40.394;-80.022;2022-12-18T04:14:46;96766.27;;;5.12;37.03
74334;BME280;62753;40.394;-80.022;2022-12-18T04:17:11;96774.56;;;4.75;38.40
74334;BME280;62753;40.394;-80.022;2022-12-18T04:19:36;96772.47;;;4.37;38.82
74334;BME280;62753;40.394;-80.022;2022-12-18T04:22:02;96768.83;;;4.39;38.64
74334;BME280;62753;40.394;-80.022;2022-12-18T04:24:27;96763.19;;;4.84;37.77
74334;BME280;62753;40.394;-80.022;2022-12-18T04:26:52;96764.63;;;4.37;39.62
74334;BME280;62753;40.394;-80.022;2022-12-18T04:29:18;96767.84;;;4.52;38.48
74334;BME280;62753;40.394;-80.022;2022-12-18T04:31:43;96764.03;;;5.32;37.30
74334;BME280;62753;40.394;-80.022;2022-12-18T04:34:08;96766.37;;;5.09;37.60
74334;BME280;62753;40.394;-80.022;2022-12-18T04:36:33;96765.40;;;4.22;38.42
74334;BME280;62753;40.394;-80.022;2022-12-18T04:38:59;96767.03;;;4.86;37.58
74334;BME280;62753;40.394;-80.022;2022-12-18T04:41:24;96761.37;;;5.21;37.13
74334;BME280;62753;40.394;-80.022;2022-12-18T04:43:49;96763.40;;;4.11;38.44
74334;BME280;62753;40.394;-80.022;2022-12-18T04:46:16;96767.71;;;4.21;39.29
74334;BME280;62753;40.394;-80.022;2022-12-18T04:48:41;96767.72;;;4.18;39.04
74334;BME280;62753;40.394;-80.022;2022-12-18T04:51:07;96763.59;;;4.15;39.25
74334;BME280;62753;40.394;-80.022;2022-12-18T04:53:32;96764.32;;;5.28;38.52
74334;BME280;62753;40.394;-80.022;2022-12-18T04:56:05;96761.10;;;5.83;37.12
74334;BME280;62753;40.394;-80.022;2022-12-18T04:58:23;96760.86;;;5.48;36.99
74334;BME280;62753;40.394;-80.022;2022-12-18T05:00:48;96755.01;;;3.66;37.29
74334;BME280;62753;40.394;-80.022;2022-12-18T05:03:15;96756.83;;;6.02;36.57
74334;BME280;62753;40.394;-80.022;2022-12-18T05:05:39;96756.17;;;6.06;36.86
74334;BME280;62753;40.394;-80.022;2022-12-18T05:08:04;96755.29;;;4.57;38.42
74334;BME280;62753;40.394;-80.022;2022-12-18T05:10:29;96757.94;;;3.85;40.99
74334;BME280;62753;40.394;-80.022;2022-12-18T05:12:55;96762.78;;;4.54;40.16
74334;BME280;62753;40.394;-80.022;2022-12-18T05:15:20;96761.76;;;5.16;39.58
74334;BME280;62753;40.394;-80.022;2022-12-18T05:17:45;96757.33;;;3.96;41.71
74334;BME280;62753;40.394;-80.022;2022-12-18T05:20:11;96763.31;;;3.00;44.11
74334;BME280;62753;40.394;-80.022;2022-12-18T05:22:36;96759.50;;;4.61;41.63
74334;BME280;62753;40.394;-80.022;2022-12-18T05:25:02;96756.84;;;3.79;42.09
74334;BME280;62753;40.394;-80.022;2022-12-18T05:27:27;96758.44;;;4.63;41.07
74334;BME280;62753;40.394;-80.022;2022-12-18T05:29:52;96760.67;;;4.16;41.33
74334;BME280;62753;40.394;-80.022;2022-12-18T05:32:18;96763.57;;;5.37;39.75
74334;BME280;62753;40.394;-80.022;2022-12-18T05:34:42;96765.55;;;4.73;39.72
74334;BME280;62753;40.394;-80.022;2022-12-18T05:37:08;96767.22;;;4.75;40.15
74334;BME280;62753;40.394;-80.022;2022-12-18T05:39:34;96765.99;;;5.05;40.12
74334;BME280;62753;40.394;-80.022;2022-12-18T05:41:59;96768.66;;;3.79;41.62
74334;BME280;62753;40.394;-80.022;2022-12-18T05:44:25;96765.66;;;4.24;42.09
74334;BME280;62753;40.394;-80.022;2022-12-18T05:46:50;96771.18;;;4.34;41.68
74334;BME280;62753;40.394;-80.022;2022-12-18T05:49:16;96772.95;;;4.80;40.83
74334;BME280;62753;40.394;-80.022;2022-12-18T05:51:41;96772.87;;;4.77;40.65
74334;BME280;62753;40.394;-80.022;2022-12-18T05:54:06;96779.57;;;4.66;40.75
74334;BME280;62753;40.394;-80.022;2022-12-18T05:56:32;96781.21;;;4.50;40.52
74334;BME280;62753;40.394;-80.022;2022-12-18T05:58:57;96783.72;;;4.52;41.28
74334;BME280;62753;40.394;-80.022;2022-12-18T06:01:25;96780.82;;;3.58;42.56
74334;BME280;62753;40.394;-80.022;2022-12-18T06:03:48;96778.46;;;3.73;42.41
74334;BME280;62753;40.394;-80.022;2022-12-18T06:06:15;96786.17;;;3.48;42.97
74334;BME280;62753;40.394;-80.022;2022-12-18T06:08:39;96784.91;;;2.73;45.41
74334;BME280;62753;40.394;-80.022;2022-12-18T06:11:04;96784.31;;;3.42;44.78
74334;BME280;62753;40.394;-80.022;2022-12-18T06:13:29;96790.34;;;3.46;44.38
74334;BME280;62753;40.394;-80.022;2022-12-18T06:15:55;96807.09;;;2.50;46.74
74334;BME280;62753;40.394;-80.022;2022-12-18T06:18:20;96818.96;;;2.23;47.75
74334;BME280;62753;40.394;-80.022;2022-12-18T06:20:55;96820.41;;;2.25;47.17
74334;BME280;62753;40.394;-80.022;2022-12-18T06:23:12;96822.57;;;1.74;48.50
74334;BME280;62753;40.394;-80.022;2022-12-18T06:25:38;96821.49;;;-0.21;52.80
74334;BME280;62753;40.394;-80.022;2022-12-18T06:28:03;96829.93;;;-0.69;57.17
74334;BME280;62753;40.394;-80.022;2022-12-18T06:30:29;96839.32;;;0.00;53.98
74334;BME280;62753;40.394;-80.022;2022-12-18T06:32:54;96841.24;;;-0.38;55.88
74334;BME280;62753;40.394;-80.022;2022-12-18T06:35:20;96838.94;;;-0.18;55.45
74334;BME280;62753;40.394;-80.022;2022-12-18T06:37:46;96841.52;;;0.42;51.95
74334;BME280;62753;40.394;-80.022;2022-12-18T06:40:11;96844.39;;;0.69;50.57
74334;BME280;62753;40.394;-80.022;2022-12-18T06:42:37;96848.56;;;0.03;51.24
74334;BME280;62753;40.394;-80.022;2022-12-18T06:45:02;96849.61;;;0.47;49.95
74334;BME280;62753;40.394;-80.022;2022-12-18T06:47:28;96848.11;;;1.41;47.48
74334;BME280;62753;40.394;-80.022;2022-12-18T06:49:53;96848.31;;;0.69;48.31
74334;BME280;62753;40.394;-80.022;2022-12-18T06:52:18;96852.75;;;1.75;45.80
74334;BME280;62753;40.394;-80.022;2022-12-18T06:54:45;96853.32;;;1.45;46.89
74334;BME280;62753;40.394;-80.022;2022-12-18T06:57:10;96859.23;;;1.01;46.10
74334;BME280;62753;40.394;-80.022;2022-12-18T06:59:35;96859.48;;;2.26;44.25
74334;BME280;62753;40.394;-80.022;2022-12-18T07:02:01;96860.58;;;2.41;44.17
74334;BME280;62753;40.394;-80.022;2022-12-18T07:04:28;96862.31;;;2.66;43.71
74334;BME280;62753;40.394;-80.022;2022-12-18T07:06:52;96868.32;;;2.24;44.01
74334;BME280;62753;40.394;-80.022;2022-12-18T07:09:18;96872.94;;;1.44;44.88
74334;BME280;62753;40.394;-80.022;2022-12-18T07:11:43;96878.54;;;0.96;46.08
74334;BME280;62753;40.394;-80.022;2022-12-18T07:14:09;96875.31;;;2.56;43.63
74334;BME280;62753;40.394;-80.022;2022-12-18T07:16:34;96879.97;;;2.86;43.99
74334;BME280;62753;40.394;-80.022;2022-12-18T07:18:59;96883.27;;;0.98;46.05
74334;BME280;62753;40.394;-80.022;2022-12-18T07:21:25;96876.27;;;2.39;44.15
74334;BME280;62753;40.394;-80.022;2022-12-18T07:23:51;96876.89;;;2.82;43.83
74334;BME280;62753;40.394;-80.022;2022-12-18T07:26:18;96880.48;;;3.62;41.96
74334;BME280;62753;40.394;-80.022;2022-12-18T07:28:42;96880.78;;;2.49;43.79
74334;BME280;62753;40.394;-80.022;2022-12-18T07:31:09;96884.69;;;2.99;43.08
74334;BME280;62753;40.394;-80.022;2022-12-18T07:33:34;96891.10;;;3.38;41.69
74334;BME280;62753;40.394;-80.022;2022-12-18T07:35:59;96898.20;;;1.98;44.00
74334;BME280;62753;40.394;-80.022;2022-12-18T07:38:24;96898.14;;;2.90;43.48
74334;BME280;62753;40.394;-80.022;2022-12-18T07:40:50;96906.37;;;2.82;43.46
74334;BME280;62753;40.394;-80.022;2022-12-18T07:43:16;96905.82;;;3.23;42.29
74334;BME280;62753;40.394;-80.022;2022-12-18T07:45:42;96898.22;;;3.79;40.94
74334;BME280;62753;40.394;-80.022;2022-12-18T07:48:06;96898.11;;;2.12;43.91
74334;BME280;62753;40.394;-80.022;2022-12-18T07:50:31;96902.73;;;2.25;44.21
74334;BME280;62753;40.394;-80.022;2022-12-18T07:52:57;96912.80;;;0.55;47.38
74334;BME280;62753;40.394;-80.022;2022-12-18T07:55:23;96915.44;;;1.62;46.78
74334;BME280;62753;40.394;-80.022;2022-12-18T07:57:49;96918.85;;;1.88;45.17
74334;BME280;62753;40.394;-80.022;2022-12-18T08:00:16;96920.59;;;1.01;48.18
74334;BME280;62753;40.394;-80.022;2022-12-18T08:02:39;96923.34;;;1.34;47.58
74334;BME280;62753;40.394;-80.022;2022-12-18T08:05:05;96923.38;;;1.62;46.39
74334;BME280;62753;40.394;-80.022;2022-12-18T08:07:31;96921.06;;;1.81;45.78
74334;BME280;62753;40.394;-80.022;2022-12-18T08:09:56;96920.50;;;2.06;44.90
74334;BME280;62753;40.394;-80.022;2022-12-18T08:12:22;96912.81;;;3.04;42.97
74334;BME280;62753;40.394;-80.022;2022-12-18T08:14:47;96917.13;;;1.75;45.11
74334;BME280;62753;40.394;-80.022;2022-12-18T08:17:12;96916.40;;;1.64;45.58
74334;BME280;62753;40.394;-80.022;2022-12-18T08:19:38;96915.82;;;1.69;45.43
74334;BME280;62753;40.394;-80.022;2022-12-18T08:22:03;96919.45;;;1.01;46.38
74334;BME280;62753;40.394;-80.022;2022-12-18T08:24:28;96918.09;;;0.95;47.53
74334;BME280;62753;40.394;-80.022;2022-12-18T08:26:54;96916.68;;;0.71;48.29
74334;BME280;62753;40.394;-80.022;2022-12-18T08:29:19;96921.94;;;0.59;47.87
74334;BME280;62753;40.394;-80.022;2022-12-18T08:31:44;96917.11;;;0.95;48.89
74334;BME280;62753;40.394;-80.022;2022-12-18T08:34:10;96918.44;;;2.24;45.43
74334;BME280;62753;40.394;-80.022;2022-12-18T08:36:36;96912.54;;;2.24;45.04
74334;BME280;62753;40.394;-80.022;2022-12-18T08:39:01;96915.60;;;2.36;45.07
74334;BME280;62753;40.394;-80.022;2022-12-18T08:41:27;96911.72;;;3.07;43.55
74334;BME280;62753;40.394;-80.022;2022-12-18T08:43:52;96915.22;;;3.36;42.78
74334;BME280;62753;40.394;-80.022;2022-12-18T08:46:18;96912.24;;;2.29;44.68
74334;BME280;62753;40.394;-80.022;2022-12-18T08:48:43;96914.89;;;2.58;43.51
74334;BME280;62753;40.394;-80.022;2022-12-18T08:51:08;96919.00;;;3.03;42.79
74334;BME280;62753;40.394;-80.022;2022-12-18T08:53:34;96918.94;;;2.62;44.18
74334;BME280;62753;40.394;-80.022;2022-12-18T08:55:59;96916.93;;;2.53;45.08
74334;BME280;62753;40.394;-80.022;2022-12-18T08:58:24;96923.59;;;1.51;46.15
74334;BME280;62753;40.394;-80.022;2022-12-18T09:00:49;96924.24;;;1.14;47.01
74334;BME280;62753;40.394;-80.022;2022-12-18T09:03:17;96921.07;;;2.88;44.57
74334;BME280;62753;40.394;-80.022;2022-12-18T09:05:41;96916.66;;;2.55;43.64
74334;BME280;62753;40.394;-80.022;2022-12-18T09:08:06;96925.36;;;1.44;46.96
74334;BME280;62753;40.394;-80.022;2022-12-18T09:10:31;96925.43;;;0.72;49.29
74334;BME280;62753;40.394;-80.022;2022-12-18T09:12:57;96922.74;;;1.13;48.04
74334;BME280;62753;40.394;-80.022;2022-12-18T09:15:22;96926.09;;;1.27;47.54
74334;BME280;62753;40.394;-80.022;2022-12-18T09:17:48;96926.07;;;0.82;48.70
74334;BME280;62753;40.394;-80.022;2022-12-18T09:20:13;96927.97;;;1.47;46.75
74334;BME280;62753;40.394;-80.022;2022-12-18T09:22:38;96929.65;;;1.61;46.56
74334;BME280;62753;40.394;-80.022;2022-12-18T09:25:04;96928.98;;;2.82;44.04
74334;BME280;62753;40.394;-80.022;2022-12-18T09:27:29;96928.53;;;2.93;43.68
74334;BME280;62753;40.394;-80.022;2022-12-18T09:29:54;96934.58;;;1.79;45.79
74334;BME280;62753;40.394;-80.022;2022-12-18T09:32:19;96934.33;;;2.20;44.97
74334;BME280;62753;40.394;-80.022;2022-12-18T09:34:45;96941.34;;;1.91;45.30
74334;BME280;62753;40.394;-80.022;2022-12-18T09:37:17;96937.96;;;3.07;43.64
74334;BME280;62753;40.394;-80.022;2022-12-18T09:39:37;96940.01;;;3.44;43.04
74334;BME280;62753;40.394;-80.022;2022-12-18T09:42:02;96945.29;;;2.19;44.99
74334;BME280;62753;40.394;-80.022;2022-12-18T09:44:30;96947.87;;;1.94;46.77
74334;BME280;62753;40.394;-80.022;2022-12-18T09:47:01;96952.55;;;1.48;46.39
74334;BME280;62753;40.394;-80.022;2022-12-18T09:49:22;96946.61;;;2.30;44.77
74334;BME280;62753;40.394;-80.022;2022-12-18T09:51:47;96951.14;;;1.18;47.28
74334;BME280;62753;40.394;-80.022;2022-12-18T09:54:14;96955.35;;;1.38;45.86
74334;BME280;62753;40.394;-80.022;2022-12-18T09:56:37;96945.12;;;1.96;46.05
74334;BME280;62753;40.394;-80.022;2022-12-18T09:59:00;96949.67;;;1.31;47.96
74334;BME280;62753;40.394;-80.022;2022-12-18T10:01:26;96951.97;;;1.47;47.92
74334;BME280;62753;40.394;-80.022;2022-12-18T10:03:50;96957.41;;;1.08;48.06
74334;BME280;62753;40.394;-80.022;2022-12-18T10:06:22;96955.80;;;1.39;48.60
74334;BME280;62753;40.394;-80.022;2022-12-18T10:08:48;96957.04;;;1.42;47.12
74334;BME280;62753;40.394;-80.022;2022-12-18T10:13:37;96958.24;;;1.44;48.35
74334;BME280;62753;40.394;-80.022;2022-12-18T10:16:08;96962.05;;;1.84;46.87
74334;BME280;62753;40.394;-80.022;2022-12-18T10:18:33;96962.70;;;1.82;47.02
74334;BME280;62753;40.394;-80.022;2022-12-18T10:20:50;96962.44;;;1.38;47.41
74334;BME280;62753;40.394;-80.022;2022-12-18T10:23:18;96966.97;;;0.79;53.78
74334;BME280;62753;40.394;-80.022;2022-12-18T10:25:50;96967.10;;;1.35;48.38
74334;BME280;62753;40.394;-80.022;2022-12-18T10:28:10;96970.00;;;1.09;47.30
74334;BME280;62753;40.394;-80.022;2022-12-18T10:30:30;96972.61;;;0.51;48.11
74334;BME280;62753;40.394;-80.022;2022-12-18T10:33:00;96972.13;;;0.47;49.52
74334;BME280;62753;40.394;-80.022;2022-12-18T10:35:23;96979.82;;;-0.36;50.30
74334;BME280;62753;40.394;-80.022;2022-12-18T10:38:00;96980.67;;;-0.36;49.86
74334;BME280;62753;40.394;-80.022;2022-12-18T10:40:14;96986.28;;;-0.62;50.38
74334;BME280;62753;40.394;-80.022;2022-12-18T10:42:38;96986.70;;;-0.03;49.41
74334;BME280;62753;40.394;-80.022;2022-12-18T10:45:11;96988.42;;;0.17;48.53
74334;BME280;62753;40.394;-80.022;2022-12-18T10:47:28;96993.29;;;0.53;48.08
74334;BME280;62753;40.394;-80.022;2022-12-18T10:49:54;96995.04;;;0.77;47.64
74334;BME280;62753;40.394;-80.022;2022-12-18T10:52:22;96999.33;;;0.22;48.30
74334;BME280;62753;40.394;-80.022;2022-12-18T10:54:50;97001.30;;;0.69;47.39
74334;BME280;62753;40.394;-80.022;2022-12-18T10:57:20;97005.26;;;0.12;47.48
74334;BME280;62753;40.394;-80.022;2022-12-18T10:59:50;97006.61;;;0.87;47.68
74334;BME280;62753;40.394;-80.022;2022-12-18T11:02:01;97009.70;;;0.72;46.88
74334;BME280;62753;40.394;-80.022;2022-12-18T11:04:28;97015.23;;;0.19;50.49
74334;BME280;62753;40.394;-80.022;2022-12-18T11:06:57;97016.94;;;1.05;46.37
74334;BME280;62753;40.394;-80.022;2022-12-18T11:09:22;97021.40;;;-0.14;47.90
74334;BME280;62753;40.394;-80.022;2022-12-18T11:11:48;97024.20;;;0.25;48.16
74334;BME280;62753;40.394;-80.022;2022-12-18T11:14:15;97031.66;;;-0.67;49.56
74334;BME280;62753;40.394;-80.022;2022-12-18T11:16:42;97030.54;;;0.85;46.98
74334;BME280;62753;40.394;-80.022;2022-12-18T11:19:11;97035.61;;;-0.69;48.94
74334;BME280;62753;40.394;-80.022;2022-12-18T11:21:24;97035.74;;;0.60;46.10
74334;BME280;62753;40.394;-80.022;2022-12-18T11:23:51;97040.63;;;1.41;44.64
74334;BME280;62753;40.394;-80.022;2022-12-18T11:26:15;97045.43;;;0.31;47.05
74334;BME280;62753;40.394;-80.022;2022-12-18T11:28:47;97048.75;;;0.61;47.35
74334;BME280;62753;40.394;-80.022;2022-12-18T11:31:17;97048.06;;;1.64;44.62
74334;BME280;62753;40.394;-80.022;2022-12-18T11:33:31;97052.35;;;1.39;44.41
74334;BME280;62753;40.394;-80.022;2022-12-18T11:35:59;97053.97;;;1.70;43.96
74334;BME280;62753;40.394;-80.022;2022-12-18T11:38:24;97061.19;;;0.58;45.22
74334;BME280;62753;40.394;-80.022;2022-12-18T11:40:54;97060.52;;;1.18;44.54
74334;BME280;62753;40.394;-80.022;2022-12-18T11:44:26;97079.72;;;-1.74;51.75
74334;BME280;62753;40.394;-80.022;2022-12-18T11:46:51;97078.78;;;-0.48;49.87
74334;BME280;62753;40.394;-80.022;2022-12-18T11:49:19;97076.99;;;-0.06;47.10
74334;BME280;62753;40.394;-80.022;2022-12-18T11:51:46;97080.90;;;0.34;47.22
74334;BME280;62753;40.394;-80.022;2022-12-18T11:54:10;97082.81;;;0.59;44.92
74334;BME280;62753;40.394;-80.022;2022-12-18T11:56:33;97090.49;;;-0.95;47.38
74334;BME280;62753;40.394;-80.022;2022-12-18T11:59:04;97101.40;;;-1.43;47.55
74334;BME280;62753;40.394;-80.022;2022-12-18T12:01:31;97101.73;;;-1.56;47.29
74334;BME280;62753;40.394;-80.022;2022-12-18T12:03:59;97108.57;;;-1.65;47.43
74334;BME280;62753;40.394;-80.022;2022-12-18T12:06:18;97109.92;;;-1.42;46.22
74334;BME280;62753;40.394;-80.022;2022-12-18T12:08:48;97112.49;;;-1.72;46.10
74334;BME280;62753;40.394;-80.022;2022-12-18T12:11:06;97116.98;;;-1.44;46.55
74334;BME280;62753;40.394;-80.022;2022-12-18T12:13:38;97121.56;;;-1.04;45.00
74334;BME280;62753;40.394;-80.022;2022-12-18T12:16:03;97117.31;;;-1.77;45.20
74334;BME280;62753;40.394;-80.022;2022-12-18T12:18:27;97127.21;;;-1.78;44.20
74334;BME280;62753;40.394;-80.022;2022-12-18T12:20:50;97130.07;;;-1.20;43.21
74334;BME280;62753;40.394;-80.022;2022-12-18T12:23:18;97129.11;;;-0.05;40.73
74334;BME280;62753;40.394;-80.022;2022-12-18T12:25:40;97132.05;;;-0.49;40.45
74334;BME280;62753;40.394;-80.022;2022-12-18T12:28:13;97141.70;;;-1.60;42.43
74334;BME280;62753;40.394;-80.022;2022-12-18T12:30:33;97139.27;;;-1.48;41.84
74334;BME280;62753;40.394;-80.022;2022-12-18T12:33:04;97146.96;;;-0.86;42.28
74334;BME280;62753;40.394;-80.022;2022-12-18T12:35:29;97149.58;;;-0.37;40.19
74334;BME280;62753;40.394;-80.022;2022-12-18T12:37:50;97151.72;;;-0.17;39.29
74334;BME280;62753;40.394;-80.022;2022-12-18T12:40:12;97152.96;;;0.67;38.26
74334;BME280;62753;40.394;-80.022;2022-12-18T12:42:39;97156.65;;;-0.17;38.74